sensor_id;sensor_type;location;lat;lon;timestamp;pressure;altitude;pressure_sealevel;temperature;humidity
47706;BME280;33471;52.104;1.318;2022-10-31T00:00:45;101433.30;;;14.46;55.72
47706;BME280;33471;52.104;1.318;2022-10-31T00:03:12;101433.66;;;14.78;55.50
47706;BME280;33471;52.104;1.318;2022-10-31T00:05:41;101438.42;;;14.57;55.36
47706;BME280;33471;52.104;1.318;2022-10-31T00:08:08;101438.99;;;14.57;55.33
47706;BME280;33471;52.104;1.318;2022-10-31T00:10:37;101437.31;;;14.62;55.12
47706;BME280;33471;52.104;1.318;2022-10-31T00:13:08;101435.60;;;14.57;55.83
47706;BME280;33471;52.104;1.318;2022-10-31T00:15:36;101433.81;;;13.90;55.50
47706;BME280;33471;52.104;1.318;2022-10-31T00:18:05;101434.17;;;14.42;55.45
47706;BME280;33471;52.104;1.318;2022-10-31T00:20:33;101434.20;;;13.89;55.80
47706;BME280;33471;52.104;1.318;2022-10-31T00:23:01;101435.80;;;14.40;56.59
47706;BME280;33471;52.104;1.318;2022-10-31T00:25:33;101439.80;;;14.33;57.05
47706;BME280;33471;52.104;1.318;2022-10-31T00:28:00;101441.04;;;14.20;58.29
47706;BME280;33471;52.104;1.318;2022-10-31T00:30:28;101443.95;;;14.25;57.18
47706;BME280;33471;52.104;1.318;2022-10-31T00:32:56;101441.96;;;14.63;57.44
47706;BME280;33471;52.104;1.318;2022-10-31T00:35:23;101447.93;;;14.75;57.62
47706;BME280;33471;52.104;1.318;2022-10-31T00:37:52;101447.15;;;14.46;57.55
47706;BME280;33471;52.104;1.318;2022-10-31T00:40:20;101446.26;;;14.44;57.18
47706;BME280;33471;52.104;1.318;2022-10-31T00:42:47;101446.82;;;14.25;57.46
47706;BME280;33471;52.104;1.318;2022-10-31T00:45:14;101445.64;;;14.81;56.64
47706;BME280;33471;52.104;1.318;2022-10-31T00:47:41;101445.43;;;14.58;56.59
47706;BME280;33471;52.104;1.318;2022-10-31T00:50:09;101444.92;;;14.98;56.19
47706;BME280;33471;52.104;1.318;2022-10-31T00:52:36;101445.90;;;14.76;56.43
47706;BME280;33471;52.104;1.318;2022-10-31T00:55:04;101448.02;;;14.71;56.32
47706;BME280;33471;52.104;1.318;2022-10-31T00:57:31;101448.03;;;14.30;56.94
47706;BME280;33471;52.104;1.318;2022-10-31T00:59:58;101448.81;;;14.59;56.71
47706;BME280;33471;52.104;1.318;2022-10-31T01:02:26;101449.50;;;14.78;56.38
47706;BME280;33471;52.104;1.318;2022-10-31T01:04:53;101449.35;;;14.73;56.15
47706;BME280;33471;52.104;1.318;2022-10-31T01:07:21;101453.23;;;14.95;55.85
47706;BME280;33471;52.104;1.318;2022-10-31T01:09:48;101451.37;;;14.76;56.41
47706;BME280;33471;52.104;1.318;2022-10-31T01:12:15;101453.33;;;14.73;56.34
47706;BME280;33471;52.104;1.318;2022-10-31T01:14:43;101451.51;;;14.62;55.97
47706;BME280;33471;52.104;1.318;2022-10-31T01:17:10;101449.36;;;15.06;55.57
47706;BME280;33471;52.104;1.318;2022-10-31T01:19:38;101450.77;;;14.74;55.87
47706;BME280;33471;52.104;1.318;2022-10-31T01:22:05;101448.58;;;14.96;55.51
47706;BME280;33471;52.104;1.318;2022-10-31T01:24:32;101447.25;;;14.49;55.24
47706;BME280;33471;52.104;1.318;2022-10-31T01:26:59;101446.91;;;14.76;55.88
47706;BME280;33471;52.104;1.318;2022-10-31T01:29:27;101447.05;;;14.59;56.21
47706;BME280;33471;52.104;1.318;2022-10-31T01:31:54;101447.52;;;14.71;56.12
47706;BME280;33471;52.104;1.318;2022-10-31T01:34:21;101446.33;;;14.67;56.78
47706;BME280;33471;52.104;1.318;2022-10-31T01:36:49;101442.30;;;14.31;57.97
47706;BME280;33471;52.104;1.318;2022-10-31T01:39:16;101441.47;;;15.00;57.36
47706;BME280;33471;52.104;1.318;2022-10-31T01:41:47;101437.60;;;14.40;57.65
47706;BME280;33471;52.104;1.318;2022-10-31T01:44:57;101432.42;;;15.32;57.98
47706;BME280;33471;52.104;1.318;2022-10-31T01:47:32;101435.33;;;14.65;57.47
47706;BME280;33471;52.104;1.318;2022-10-31T01:50:03;101431.33;;;15.16;57.08
47706;BME280;33471;52.104;1.318;2022-10-31T01:52:34;101427.19;;;14.36;57.96
47706;BME280;33471;52.104;1.318;2022-10-31T01:55:05;101426.48;;;14.92;57.51
47706;BME280;33471;52.104;1.318;2022-10-31T01:57:35;101430.13;;;14.35;57.48
47706;BME280;33471;52.104;1.318;2022-10-31T02:00:08;101428.60;;;15.06;57.18
47706;BME280;33471;52.104;1.318;2022-10-31T02:02:36;101427.83;;;13.94;57.22
47706;BME280;33471;52.104;1.318;2022-10-31T02:05:06;101426.71;;;15.37;56.39
47706;BME280;33471;52.104;1.318;2022-10-31T02:07:38;101425.66;;;14.67;56.17
47706;BME280;33471;52.104;1.318;2022-10-31T02:10:07;101425.27;;;15.23;56.29
47706;BME280;33471;52.104;1.318;2022-10-31T02:12:34;101423.75;;;15.02;55.94
47706;BME280;33471;52.104;1.318;2022-10-31T02:15:03;101414.39;;;15.33;56.10
47706;BME280;33471;52.104;1.318;2022-10-31T02:17:31;101420.23;;;15.06;56.03
47706;BME280;33471;52.104;1.318;2022-10-31T02:20:09;101420.97;;;14.74;56.53
47706;BME280;33471;52.104;1.318;2022-10-31T02:22:50;101419.74;;;14.87;56.06
47706;BME280;33471;52.104;1.318;2022-10-31T02:25:41;101422.51;;;15.21;56.30
47706;BME280;33471;52.104;1.318;2022-10-31T02:28:29;101424.03;;;15.25;56.34
47706;BME280;33471;52.104;1.318;2022-10-31T02:31:07;101425.37;;;15.14;56.53
47706;BME280;33471;52.104;1.318;2022-10-31T02:33:44;101426.30;;;15.32;56.46
47706;BME280;33471;52.104;1.318;2022-10-31T02:36:19;101425.92;;;15.36;56.47
47706;BME280;33471;52.104;1.318;2022-10-31T02:38:54;101420.26;;;15.48;56.49
47706;BME280;33471;52.104;1.318;2022-10-31T02:41:32;101422.84;;;15.52;56.58
47706;BME280;33471;52.104;1.318;2022-10-31T02:44:07;101421.31;;;14.51;58.12
47706;BME280;33471;52.104;1.318;2022-10-31T02:46:42;101418.60;;;15.08;57.09
47706;BME280;33471;52.104;1.318;2022-10-31T02:49:16;101413.58;;;15.48;56.43
47706;BME280;33471;52.104;1.318;2022-10-31T02:51:45;101409.05;;;15.59;56.37
47706;BME280;33471;52.104;1.318;2022-10-31T02:54:22;101411.28;;;15.77;56.58
47706;BME280;33471;52.104;1.318;2022-10-31T02:56:54;101413.93;;;15.91;56.54
47706;BME280;33471;52.104;1.318;2022-10-31T02:59:24;101411.86;;;16.07;56.19
47706;BME280;33471;52.104;1.318;2022-10-31T03:02:02;101421.68;;;15.52;57.00
47706;BME280;33471;52.104;1.318;2022-10-31T03:04:45;101415.16;;;15.75;56.87
47706;BME280;33471;52.104;1.318;2022-10-31T03:07:21;101416.40;;;15.99;56.52
47706;BME280;33471;52.104;1.318;2022-10-31T03:09:59;101413.17;;;15.87;56.57
47706;BME280;33471;52.104;1.318;2022-10-31T03:12:33;101411.14;;;15.96;56.31
47706;BME280;33471;52.104;1.318;2022-10-31T03:15:11;101408.33;;;16.25;55.89
47706;BME280;33471;52.104;1.318;2022-10-31T03:17:45;101405.62;;;16.09;55.09
47706;BME280;33471;52.104;1.318;2022-10-31T03:20:15;101402.94;;;15.75;56.46
47706;BME280;33471;52.104;1.318;2022-10-31T03:22:43;101401.98;;;15.86;56.06
47706;BME280;33471;52.104;1.318;2022-10-31T03:25:11;101401.64;;;15.81;56.00
47706;BME280;33471;52.104;1.318;2022-10-31T03:27:42;101402.69;;;15.79;56.00
47706;BME280;33471;52.104;1.318;2022-10-31T03:30:12;101400.03;;;15.77;55.82
47706;BME280;33471;52.104;1.318;2022-10-31T03:32:43;101395.01;;;15.56;55.65
47706;BME280;33471;52.104;1.318;2022-10-31T03:35:15;101394.50;;;15.80;55.54
47706;BME280;33471;52.104;1.318;2022-10-31T03:37:45;101394.98;;;15.86;55.25
47706;BME280;33471;52.104;1.318;2022-10-31T03:40:14;101395.56;;;16.05;55.17
47706;BME280;33471;52.104;1.318;2022-10-31T03:42:48;101400.25;;;15.61;55.41
47706;BME280;33471;52.104;1.318;2022-10-31T03:45:22;101398.41;;;16.01;55.10
47706;BME280;33471;52.104;1.318;2022-10-31T03:47:50;101394.24;;;15.96;55.25
47706;BME280;33471;52.104;1.318;2022-10-31T03:50:20;101392.52;;;15.93;55.25
47706;BME280;33471;52.104;1.318;2022-10-31T03:52:52;101390.56;;;16.01;55.03
47706;BME280;33471;52.104;1.318;2022-10-31T03:55:28;101388.05;;;16.20;55.08
47706;BME280;33471;52.104;1.318;2022-10-31T03:58:01;101385.64;;;15.65;55.13
47706;BME280;33471;52.104;1.318;2022-10-31T04:00:32;101384.15;;;15.34;55.13
47706;BME280;33471;52.104;1.318;2022-10-31T04:03:05;101385.79;;;15.89;54.98
47706;BME280;33471;52.104;1.318;2022-10-31T04:05:35;101385.82;;;15.06;55.04
47706;BME280;33471;52.104;1.318;2022-10-31T04:08:08;101389.49;;;15.86;54.84
47706;BME280;33471;52.104;1.318;2022-10-31T04:10:37;101393.95;;;15.11;54.84
47706;BME280;33471;52.104;1.318;2022-10-31T04:13:08;101399.61;;;15.82;54.77
47706;BME280;33471;52.104;1.318;2022-10-31T04:15:37;101396.51;;;15.02;55.02
47706;BME280;33471;52.104;1.318;2022-10-31T04:18:06;101390.87;;;16.17;54.66
47706;BME280;33471;52.104;1.318;2022-10-31T04:20:35;101395.32;;;15.41;55.12
47706;BME280;33471;52.104;1.318;2022-10-31T04:23:04;101392.98;;;15.70;54.97
47706;BME280;33471;52.104;1.318;2022-10-31T04:25:31;101395.12;;;15.20;55.21
47706;BME280;33471;52.104;1.318;2022-10-31T04:27:58;101392.95;;;15.71;54.75
47706;BME280;33471;52.104;1.318;2022-10-31T04:30:26;101393.79;;;15.81;54.77
47706;BME280;33471;52.104;1.318;2022-10-31T04:32:53;101387.38;;;15.68;54.57
47706;BME280;33471;52.104;1.318;2022-10-31T04:35:20;101384.21;;;15.63;54.58
47706;BME280;33471;52.104;1.318;2022-10-31T04:37:47;101387.56;;;15.53;54.66
47706;BME280;33471;52.104;1.318;2022-10-31T04:40:15;101382.63;;;15.57;54.61
47706;BME280;33471;52.104;1.318;2022-10-31T04:42:41;101376.83;;;15.16;54.46
47706;BME280;33471;52.104;1.318;2022-10-31T04:45:09;101376.27;;;15.78;54.57
47706;BME280;33471;52.104;1.318;2022-10-31T04:47:36;101377.99;;;14.86;54.38
47706;BME280;33471;52.104;1.318;2022-10-31T04:50:04;101374.00;;;15.61;54.01
47706;BME280;33471;52.104;1.318;2022-10-31T04:52:31;101380.86;;;15.19;54.35
47706;BME280;33471;52.104;1.318;2022-10-31T04:54:59;101375.10;;;15.29;54.46
47706;BME280;33471;52.104;1.318;2022-10-31T04:57:26;101375.10;;;15.59;54.32
47706;BME280;33471;52.104;1.318;2022-10-31T04:59:53;101375.35;;;15.55;54.29
47706;BME280;33471;52.104;1.318;2022-10-31T05:02:20;101371.11;;;15.47;54.34
47706;BME280;33471;52.104;1.318;2022-10-31T05:04:47;101368.61;;;15.23;54.24
47706;BME280;33471;52.104;1.318;2022-10-31T05:07:14;101368.12;;;15.42;54.32
47706;BME280;33471;52.104;1.318;2022-10-31T05:09:41;101369.43;;;14.88;54.38
47706;BME280;33471;52.104;1.318;2022-10-31T05:12:08;101367.60;;;15.41;54.30
47706;BME280;33471;52.104;1.318;2022-10-31T05:14:35;101374.21;;;15.14;54.42
47706;BME280;33471;52.104;1.318;2022-10-31T05:17:03;101371.71;;;15.32;54.59
47706;BME280;33471;52.104;1.318;2022-10-31T05:19:30;101368.35;;;15.04;54.49
47706;BME280;33471;52.104;1.318;2022-10-31T05:21:58;101368.32;;;14.86;54.65
47706;BME280;33471;52.104;1.318;2022-10-31T05:24:26;101373.24;;;15.32;54.49
47706;BME280;33471;52.104;1.318;2022-10-31T05:26:53;101372.19;;;15.13;54.43
47706;BME280;33471;52.104;1.318;2022-10-31T05:29:20;101373.66;;;15.09;54.49
47706;BME280;33471;52.104;1.318;2022-10-31T05:31:47;101373.41;;;15.04;54.68
47706;BME280;33471;52.104;1.318;2022-10-31T05:34:14;101366.53;;;14.95;54.81
47706;BME280;33471;52.104;1.318;2022-10-31T05:36:41;101362.81;;;14.60;54.61
47706;BME280;33471;52.104;1.318;2022-10-31T05:39:08;101361.31;;;15.12;54.53
47706;BME280;33471;52.104;1.318;2022-10-31T05:41:35;101362.31;;;15.06;54.66
47706;BME280;33471;52.104;1.318;2022-10-31T05:44:02;101357.08;;;15.03;54.78
47706;BME280;33471;52.104;1.318;2022-10-31T05:46:30;101358.27;;;14.83;54.71
47706;BME280;33471;52.104;1.318;2022-10-31T05:48:57;101358.23;;;14.77;54.67
47706;BME280;33471;52.104;1.318;2022-10-31T05:51:24;101357.48;;;15.16;54.43
47706;BME280;33471;52.104;1.318;2022-10-31T05:53:51;101357.49;;;14.81;54.38
47706;BME280;33471;52.104;1.318;2022-10-31T05:56:19;101351.70;;;14.98;54.37
47706;BME280;33471;52.104;1.318;2022-10-31T05:58:46;101350.24;;;15.03;54.13
47706;BME280;33471;52.104;1.318;2022-10-31T06:01:13;101347.58;;;14.81;54.38
47706;BME280;33471;52.104;1.318;2022-10-31T06:03:40;101349.75;;;14.79;54.31
47706;BME280;33471;52.104;1.318;2022-10-31T06:06:07;101349.47;;;14.77;54.20
47706;BME280;33471;52.104;1.318;2022-10-31T06:08:35;101347.09;;;14.21;54.15
47706;BME280;33471;52.104;1.318;2022-10-31T06:11:02;101347.69;;;14.69;54.09
47706;BME280;33471;52.104;1.318;2022-10-31T06:13:30;101343.30;;;14.67;54.02
47706;BME280;33471;52.104;1.318;2022-10-31T06:15:58;101336.34;;;14.57;54.04
47706;BME280;33471;52.104;1.318;2022-10-31T06:18:25;101329.74;;;14.80;53.91
47706;BME280;33471;52.104;1.318;2022-10-31T06:20:52;101332.16;;;14.44;54.01
47706;BME280;33471;52.104;1.318;2022-10-31T06:23:19;101334.00;;;14.85;54.02
47706;BME280;33471;52.104;1.318;2022-10-31T06:25:49;101336.16;;;14.41;54.21
47706;BME280;33471;52.104;1.318;2022-10-31T06:28:17;101337.23;;;14.76;53.95
47706;BME280;33471;52.104;1.318;2022-10-31T06:30:45;101334.44;;;14.23;53.91
47706;BME280;33471;52.104;1.318;2022-10-31T06:33:12;101337.09;;;14.31;53.71
47706;BME280;33471;52.104;1.318;2022-10-31T06:35:45;101338.00;;;14.35;53.92
47706;BME280;33471;52.104;1.318;2022-10-31T06:38:12;101337.87;;;14.61;53.97
47706;BME280;33471;52.104;1.318;2022-10-31T06:40:40;101332.89;;;13.80;54.07
47706;BME280;33471;52.104;1.318;2022-10-31T06:43:07;101332.94;;;14.45;54.25
47706;BME280;33471;52.104;1.318;2022-10-31T06:45:35;101331.36;;;13.55;54.13
47706;BME280;33471;52.104;1.318;2022-10-31T06:48:02;101335.30;;;14.44;54.29
47706;BME280;33471;52.104;1.318;2022-10-31T06:50:31;101339.66;;;13.94;54.42
47706;BME280;33471;52.104;1.318;2022-10-31T06:52:58;101339.88;;;14.05;54.28
47706;BME280;33471;52.104;1.318;2022-10-31T06:55:28;101340.80;;;13.94;54.39
47706;BME280;33471;52.104;1.318;2022-10-31T06:57:57;101340.96;;;14.28;54.06
47706;BME280;33471;52.104;1.318;2022-10-31T07:00:26;101342.10;;;13.99;54.16
47706;BME280;33471;52.104;1.318;2022-10-31T07:02:55;101341.64;;;14.04;54.13
47706;BME280;33471;52.104;1.318;2022-10-31T07:05:23;101341.26;;;14.42;54.23
47706;BME280;33471;52.104;1.318;2022-10-31T07:07:52;101339.76;;;14.16;54.34
47706;BME280;33471;52.104;1.318;2022-10-31T07:10:20;101335.61;;;14.37;54.39
47706;BME280;33471;52.104;1.318;2022-10-31T07:12:47;101337.83;;;14.26;54.27
47706;BME280;33471;52.104;1.318;2022-10-31T07:15:15;101337.01;;;14.40;54.45
47706;BME280;33471;52.104;1.318;2022-10-31T07:17:42;101335.81;;;13.94;54.45
47706;BME280;33471;52.104;1.318;2022-10-31T07:20:09;101336.09;;;14.15;54.45
47706;BME280;33471;52.104;1.318;2022-10-31T07:22:37;101337.98;;;13.74;54.83
47706;BME280;33471;52.104;1.318;2022-10-31T07:25:05;101342.23;;;14.48;54.44
47706;BME280;33471;52.104;1.318;2022-10-31T07:27:36;101340.61;;;13.69;54.44
47706;BME280;33471;52.104;1.318;2022-10-31T07:30:04;101337.88;;;13.95;54.90
47706;BME280;33471;52.104;1.318;2022-10-31T07:32:38;101340.57;;;13.60;54.68
47706;BME280;33471;52.104;1.318;2022-10-31T07:35:05;101341.31;;;14.41;54.76
47706;BME280;33471;52.104;1.318;2022-10-31T07:37:32;101339.17;;;13.73;54.71
47706;BME280;33471;52.104;1.318;2022-10-31T07:40:00;101338.97;;;14.24;54.74
47706;BME280;33471;52.104;1.318;2022-10-31T07:42:28;101337.22;;;14.52;54.85
47706;BME280;33471;52.104;1.318;2022-10-31T07:44:55;101336.55;;;14.10;55.02
47706;BME280;33471;52.104;1.318;2022-10-31T07:47:22;101340.54;;;13.82;55.87
47706;BME280;33471;52.104;1.318;2022-10-31T07:49:49;101338.75;;;14.25;55.80
47706;BME280;33471;52.104;1.318;2022-10-31T07:52:16;101338.81;;;14.84;55.44
47706;BME280;33471;52.104;1.318;2022-10-31T07:54:44;101338.69;;;14.17;55.97
47706;BME280;33471;52.104;1.318;2022-10-31T07:57:11;101336.90;;;14.46;55.74
47706;BME280;33471;52.104;1.318;2022-10-31T07:59:38;101336.95;;;14.32;55.75
47706;BME280;33471;52.104;1.318;2022-10-31T08:02:07;101336.28;;;14.71;55.59
47706;BME280;33471;52.104;1.318;2022-10-31T08:04:35;101335.15;;;14.33;55.74
47706;BME280;33471;52.104;1.318;2022-10-31T08:07:02;101336.22;;;14.92;55.66
47706;BME280;33471;52.104;1.318;2022-10-31T08:09:30;101335.19;;;14.76;55.64
47706;BME280;33471;52.104;1.318;2022-10-31T08:11:57;101328.58;;;14.84;56.50
47706;BME280;33471;52.104;1.318;2022-10-31T08:14:24;101324.67;;;14.58;57.25
47706;BME280;33471;52.104;1.318;2022-10-31T08:16:52;101325.35;;;15.12;56.35
47706;BME280;33471;52.104;1.318;2022-10-31T08:19:19;101324.55;;;15.29;56.28
47706;BME280;33471;52.104;1.318;2022-10-31T08:21:50;101318.31;;;15.42;56.80
47706;BME280;33471;52.104;1.318;2022-10-31T08:24:18;101323.11;;;15.34;56.91
47706;BME280;33471;52.104;1.318;2022-10-31T08:26:45;101319.21;;;14.98;56.90
47706;BME280;33471;52.104;1.318;2022-10-31T08:29:12;101318.54;;;15.71;57.46
47706;BME280;33471;52.104;1.318;2022-10-31T08:31:39;101321.69;;;14.92;58.27
47706;BME280;33471;52.104;1.318;2022-10-31T08:34:06;101321.29;;;15.15;59.65
47706;BME280;33471;52.104;1.318;2022-10-31T08:36:34;101318.38;;;14.66;60.01
47706;BME280;33471;52.104;1.318;2022-10-31T08:39:01;101310.12;;;15.28;60.64
47706;BME280;33471;52.104;1.318;2022-10-31T08:41:29;101304.91;;;15.37;60.37
47706;BME280;33471;52.104;1.318;2022-10-31T08:43:56;101303.91;;;15.57;59.71
47706;BME280;33471;52.104;1.318;2022-10-31T08:46:23;101298.80;;;15.92;60.74
47706;BME280;33471;52.104;1.318;2022-10-31T08:48:51;101301.05;;;15.79;60.31
47706;BME280;33471;52.104;1.318;2022-10-31T08:51:18;101301.81;;;16.07;59.64
47706;BME280;33471;52.104;1.318;2022-10-31T08:53:46;101301.24;;;15.60;59.90
47706;BME280;33471;52.104;1.318;2022-10-31T08:56:12;101297.71;;;16.25;58.94
47706;BME280;33471;52.104;1.318;2022-10-31T08:58:39;101296.04;;;15.66;59.26
47706;BME280;33471;52.104;1.318;2022-10-31T09:01:06;101296.85;;;16.42;58.58
47706;BME280;33471;52.104;1.318;2022-10-31T09:03:34;101297.02;;;16.11;58.13
47706;BME280;33471;52.104;1.318;2022-10-31T09:06:02;101291.14;;;16.27;59.42
47706;BME280;33471;52.104;1.318;2022-10-31T09:08:31;101287.20;;;16.08;60.07
47706;BME280;33471;52.104;1.318;2022-10-31T09:10:59;101285.56;;;15.55;62.25
47706;BME280;33471;52.104;1.318;2022-10-31T09:13:27;101287.85;;;16.02;61.49
47706;BME280;33471;52.104;1.318;2022-10-31T09:15:56;101290.85;;;16.36;61.02
47706;BME280;33471;52.104;1.318;2022-10-31T09:18:25;101286.17;;;16.28;61.69
47706;BME280;33471;52.104;1.318;2022-10-31T09:20:52;101287.31;;;16.19;61.63
47706;BME280;33471;52.104;1.318;2022-10-31T09:23:21;101283.19;;;16.25;61.27
47706;BME280;33471;52.104;1.318;2022-10-31T09:25:50;101283.06;;;16.27;60.07
47706;BME280;33471;52.104;1.318;2022-10-31T09:28:20;101279.19;;;16.51;60.30
47706;BME280;33471;52.104;1.318;2022-10-31T09:30:49;101276.95;;;15.49;62.92
47706;BME280;33471;52.104;1.318;2022-10-31T09:33:17;101274.88;;;15.75;62.79
47706;BME280;33471;52.104;1.318;2022-10-31T09:35:44;101271.49;;;16.13;60.66
47706;BME280;33471;52.104;1.318;2022-10-31T09:38:12;101267.26;;;16.93;59.52
47706;BME280;33471;52.104;1.318;2022-10-31T09:40:41;101267.84;;;16.82;58.83
47706;BME280;33471;52.104;1.318;2022-10-31T09:43:14;101261.27;;;17.42;57.89
47706;BME280;33471;52.104;1.318;2022-10-31T09:45:52;101264.16;;;16.76;58.76
47706;BME280;33471;52.104;1.318;2022-10-31T09:48:33;101262.55;;;16.70;59.37
47706;BME280;33471;52.104;1.318;2022-10-31T09:51:07;101256.21;;;17.05;58.13
47706;BME280;33471;52.104;1.318;2022-10-31T09:53:40;101259.53;;;16.73;56.81
47706;BME280;33471;52.104;1.318;2022-10-31T09:56:13;101255.75;;;17.05;56.11
47706;BME280;33471;52.104;1.318;2022-10-31T09:58:43;101256.86;;;16.70;56.70
47706;BME280;33471;52.104;1.318;2022-10-31T10:01:30;101253.29;;;16.34;57.71
47706;BME280;33471;52.104;1.318;2022-10-31T10:04:05;101253.58;;;17.16;57.66
47706;BME280;33471;52.104;1.318;2022-10-31T10:06:42;101250.39;;;16.64;58.44
47706;BME280;33471;52.104;1.318;2022-10-31T10:09:12;101250.67;;;16.71;58.07
47706;BME280;33471;52.104;1.318;2022-10-31T10:11:48;101250.72;;;15.87;58.87
47706;BME280;33471;52.104;1.318;2022-10-31T10:14:34;101246.32;;;17.28;57.56
47706;BME280;33471;52.104;1.318;2022-10-31T10:17:15;101242.86;;;17.41;57.02
47706;BME280;33471;52.104;1.318;2022-10-31T10:19:56;101240.60;;;17.09;57.52
47706;BME280;33471;52.104;1.318;2022-10-31T10:22:31;101236.54;;;16.58;57.82
47706;BME280;33471;52.104;1.318;2022-10-31T10:25:16;101235.14;;;17.45;56.18
47706;BME280;33471;52.104;1.318;2022-10-31T10:27:52;101233.51;;;16.82;57.06
47706;BME280;33471;52.104;1.318;2022-10-31T10:30:26;101230.21;;;16.45;57.38
47706;BME280;33471;52.104;1.318;2022-10-31T10:32:59;101223.80;;;16.52;57.41
47706;BME280;33471;52.104;1.318;2022-10-31T10:35:32;101220.84;;;15.99;58.16
47706;BME280;33471;52.104;1.318;2022-10-31T10:38:04;101216.21;;;17.14;57.16
47706;BME280;33471;52.104;1.318;2022-10-31T10:40:37;101225.79;;;16.90;56.47
47706;BME280;33471;52.104;1.318;2022-10-31T10:43:24;101223.64;;;17.39;55.87
47706;BME280;33471;52.104;1.318;2022-10-31T10:46:13;101216.60;;;17.28;54.56
47706;BME280;33471;52.104;1.318;2022-10-31T10:48:45;101219.47;;;16.87;55.56
47706;BME280;33471;52.104;1.318;2022-10-31T10:51:21;101217.90;;;17.58;54.96
47706;BME280;33471;52.104;1.318;2022-10-31T10:54:02;101220.42;;;16.92;56.38
47706;BME280;33471;52.104;1.318;2022-10-31T10:56:53;101220.97;;;16.89;56.40
47706;BME280;33471;52.104;1.318;2022-10-31T10:59:24;101218.77;;;17.22;55.60
47706;BME280;33471;52.104;1.318;2022-10-31T11:01:52;101209.94;;;17.01;56.44
47706;BME280;33471;52.104;1.318;2022-10-31T11:04:26;101208.10;;;16.64;57.82
47706;BME280;33471;52.104;1.318;2022-10-31T11:06:59;101204.58;;;17.08;56.25
47706;BME280;33471;52.104;1.318;2022-10-31T11:09:28;101202.59;;;16.39;57.49
47706;BME280;33471;52.104;1.318;2022-10-31T11:11:56;101200.39;;;16.82;56.42
47706;BME280;33471;52.104;1.318;2022-10-31T11:14:24;101192.19;;;17.65;55.67
47706;BME280;33471;52.104;1.318;2022-10-31T11:17:09;101189.99;;;17.21;55.76
47706;BME280;33471;52.104;1.318;2022-10-31T11:19:37;101186.36;;;16.81;55.61
47706;BME280;33471;52.104;1.318;2022-10-31T11:22:07;101181.54;;;17.31;55.36
47706;BME280;33471;52.104;1.318;2022-10-31T11:24:39;101186.01;;;15.95;56.44
47706;BME280;33471;52.104;1.318;2022-10-31T11:27:14;101180.39;;;16.26;56.96
47706;BME280;33471;52.104;1.318;2022-10-31T11:29:42;101180.55;;;17.44;54.59
47706;BME280;33471;52.104;1.318;2022-10-31T11:32:18;101169.44;;;17.40;54.96
47706;BME280;33471;52.104;1.318;2022-10-31T11:34:48;101159.59;;;16.93;54.48
47706;BME280;33471;52.104;1.318;2022-10-31T11:37:19;101152.70;;;17.27;54.48
47706;BME280;33471;52.104;1.318;2022-10-31T11:39:52;101153.68;;;16.59;55.33
47706;BME280;33471;52.104;1.318;2022-10-31T11:42:22;101142.56;;;16.12;55.12
47706;BME280;33471;52.104;1.318;2022-10-31T11:44:51;101135.99;;;15.55;58.13
47706;BME280;33471;52.104;1.318;2022-10-31T11:47:25;101135.28;;;16.10;57.19
47706;BME280;33471;52.104;1.318;2022-10-31T11:49:53;101134.87;;;16.97;56.03
47706;BME280;33471;52.104;1.318;2022-10-31T11:52:23;101132.75;;;16.99;55.59
47706;BME280;33471;52.104;1.318;2022-10-31T11:54:54;101125.77;;;16.81;55.81
47706;BME280;33471;52.104;1.318;2022-10-31T11:57:24;101120.15;;;16.32;56.97
47706;BME280;33471;52.104;1.318;2022-10-31T11:59:52;101118.01;;;16.46;56.99
47706;BME280;33471;52.104;1.318;2022-10-31T12:02:20;101110.64;;;16.26;56.76
47706;BME280;33471;52.104;1.318;2022-10-31T12:04:52;101109.80;;;16.13;56.18
47706;BME280;33471;52.104;1.318;2022-10-31T12:07:23;101106.02;;;16.62;55.40
47706;BME280;33471;52.104;1.318;2022-10-31T12:09:51;101102.42;;;15.44;57.88
47706;BME280;33471;52.104;1.318;2022-10-31T12:13:08;101096.02;;;16.79;56.51
47706;BME280;33471;52.104;1.318;2022-10-31T12:15:45;101101.10;;;17.08;54.57
47706;BME280;33471;52.104;1.318;2022-10-31T12:18:35;101096.90;;;16.71;55.16
47706;BME280;33471;52.104;1.318;2022-10-31T12:21:15;101090.38;;;17.05;54.74
47706;BME280;33471;52.104;1.318;2022-10-31T12:23:56;101089.36;;;16.70;54.14
47706;BME280;33471;52.104;1.318;2022-10-31T12:26:33;101084.82;;;17.22;53.10
47706;BME280;33471;52.104;1.318;2022-10-31T12:29:15;101076.36;;;16.51;54.45
47706;BME280;33471;52.104;1.318;2022-10-31T12:31:56;101073.65;;;16.65;55.20
47706;BME280;33471;52.104;1.318;2022-10-31T12:34:38;101065.56;;;16.84;53.73
47706;BME280;33471;52.104;1.318;2022-10-31T12:37:15;101054.65;;;16.54;54.71
47706;BME280;33471;52.104;1.318;2022-10-31T12:39:53;101046.88;;;16.60;54.87
47706;BME280;33471;52.104;1.318;2022-10-31T12:42:33;101046.16;;;17.08;53.21
47706;BME280;33471;52.104;1.318;2022-10-31T12:45:21;101038.15;;;16.81;53.14
47706;BME280;33471;52.104;1.318;2022-10-31T12:48:06;101032.79;;;17.05;52.61
47706;BME280;33471;52.104;1.318;2022-10-31T12:50:49;101022.37;;;17.59;51.33
47706;BME280;33471;52.104;1.318;2022-10-31T12:53:29;101019.04;;;17.90;51.32
47706;BME280;33471;52.104;1.318;2022-10-31T12:56:10;101022.84;;;17.52;50.78
47706;BME280;33471;52.104;1.318;2022-10-31T12:58:47;101017.18;;;16.99;51.94
47706;BME280;33471;52.104;1.318;2022-10-31T13:01:21;101008.11;;;17.23;52.52
47706;BME280;33471;52.104;1.318;2022-10-31T13:03:55;100998.32;;;17.47;52.14
47706;BME280;33471;52.104;1.318;2022-10-31T13:06:32;100990.41;;;17.72;51.51
47706;BME280;33471;52.104;1.318;2022-10-31T13:09:04;100982.44;;;18.01;51.22